createdAt,value
2018-02-11T00:00:37.816Z,98601.91
2018-02-11T00:03:05.229Z,98598.72
2018-02-11T00:05:32.634Z,98606.37
2018-02-11T00:08:00.048Z,98600.70
2018-02-11T00:10:27.499Z,98599.67
2018-02-11T00:12:54.921Z,98599.37
2018-02-11T00:15:22.360Z,98597.03
2018-02-11T00:17:49.799Z,98589.05
2018-02-11T00:20:17.269Z,98587.01
2018-02-11T00:22:44.685Z,98589.38
2018-02-11T00:25:12.087Z,98584.98
2018-02-11T00:27:39.516Z,98582.47
2018-02-11T00:30:06.938Z,98575.77
2018-02-11T00:32:34.879Z,98582.48
2018-02-11T00:35:02.302Z,98570.97
2018-02-11T00:37:35.205Z,98565.88
2018-02-11T00:40:02.634Z,98558.29
2018-02-11T00:42:30.066Z,98560.63
2018-02-11T00:44:57.480Z,98561.27
2018-02-11T00:47:24.902Z,98557.44
2018-02-11T00:49:52.331Z,98550.28
2018-02-11T00:52:19.736Z,98547.51
2018-02-11T00:54:47.162Z,98550.87
2018-02-11T00:57:14.602Z,98544.11
2018-02-11T00:59:42.012Z,98540.84
2018-02-11T01:02:09.429Z,98527.28
2018-02-11T01:04:36.865Z,98517.16
2018-02-11T01:07:04.301Z,98514.61
2018-02-11T01:09:31.745Z,98513.94
2018-02-11T01:11:59.161Z,98507.63
2018-02-11T01:14:26.589Z,98500.29
2018-02-11T01:16:53.984Z,98497.70
2018-02-11T01:19:21.406Z,98504.50
2018-02-11T01:21:48.826Z,98498.84
2018-02-11T01:24:16.315Z,98490.81
2018-02-11T01:26:43.748Z,98483.04
2018-02-11T01:29:11.156Z,98472.16
2018-02-11T01:31:38.571Z,98474.10
2018-02-11T01:34:05.988Z,98475.63
2018-02-11T01:36:33.394Z,98477.19
2018-02-11T01:39:00.808Z,98470.86
2018-02-11T01:41:28.213Z,98468.69
2018-02-11T01:43:55.678Z,98459.31
2018-02-11T01:46:23.112Z,98458.49
2018-02-11T01:48:50.522Z,98454.13
2018-02-11T01:51:17.965Z,98450.05
2018-02-11T01:53:45.401Z,98447.91
2018-02-11T01:56:12.814Z,98449.09
2018-02-11T01:58:40.228Z,98446.84
2018-02-11T02:01:08.391Z,98445.11
2018-02-11T02:03:35.811Z,98445.11
2018-02-11T02:06:03.233Z,98441.23
2018-02-11T02:08:30.651Z,98444.13
2018-02-11T02:10:58.089Z,98437.84
2018-02-11T02:13:25.510Z,98437.78
2018-02-11T02:15:52.934Z,98429.78
2018-02-11T02:18:20.333Z,98429.69
2018-02-11T02:20:47.745Z,98422.38
2018-02-11T02:23:15.165Z,98414.16
2018-02-11T02:25:42.597Z,98410.56
2018-02-11T02:28:10.001Z,98409.56
2018-02-11T02:30:37.415Z,98401.13
2018-02-11T02:33:04.836Z,98403.27
2018-02-11T02:35:32.255Z,98394.37
2018-02-11T02:37:59.698Z,98383.69
2018-02-11T02:40:27.142Z,98377.24
2018-02-11T02:42:54.551Z,98375.02
2018-02-11T02:45:21.970Z,98368.08
2018-02-11T02:47:49.385Z,98367.86
2018-02-11T02:50:16.805Z,98357.27
2018-02-11T02:52:44.266Z,98361.66
2018-02-11T02:55:11.766Z,98351.02
2018-02-11T02:57:39.176Z,98350.31
2018-02-11T03:00:06.589Z,98344.84
2018-02-11T03:02:34.058Z,98348.67
2018-02-11T03:05:01.475Z,98356.98
2018-02-11T03:07:28.863Z,98353.35
2018-02-11T03:09:56.273Z,98345.16
2018-02-11T03:12:23.705Z,98342.06
2018-02-11T03:14:51.203Z,98331.55
2018-02-11T03:17:18.631Z,98324.01
2018-02-11T03:19:46.097Z,98317.33
2018-02-11T03:22:13.518Z,98310.81
2018-02-11T03:24:40.926Z,98303.12
2018-02-11T03:27:08.454Z,98307.20
2018-02-11T03:29:35.849Z,98299.45
2018-02-11T03:32:03.259Z,98292.14
2018-02-11T03:34:30.658Z,98289.16
2018-02-11T03:36:58.079Z,98291.34
2018-02-11T03:39:25.560Z,98285.45
2018-02-11T03:41:53.021Z,98282.50
2018-02-11T03:44:20.461Z,98277.53
2018-02-11T03:46:47.878Z,98266.34
2018-02-11T03:49:15.325Z,98267.95
2018-02-11T03:51:43.368Z,98262.24
2018-02-11T03:54:10.804Z,98249.70
2018-02-11T03:56:38.217Z,98250.78
2018-02-11T03:59:05.632Z,98247.05
2018-02-11T04:01:33.040Z,98236.27
2018-02-11T04:04:00.436Z,98236.81
2018-02-11T04:06:27.878Z,98229.38
2018-02-11T04:08:55.294Z,98227.64
2018-02-11T04:11:22.690Z,98224.95
2018-02-11T04:13:50.144Z,98215.91
2018-02-11T04:16:17.557Z,98214.95
2018-02-11T04:18:44.977Z,98206.96
2018-02-11T04:21:12.397Z,98206.52
2018-02-11T04:23:39.798Z,98215.78
2018-02-11T04:26:07.202Z,98212.73
2018-02-11T04:28:34.616Z,98200.69
2018-02-11T04:31:02.021Z,98195.59
2018-02-11T04:33:29.548Z,98194.58
2018-02-11T04:35:56.942Z,98185.30
2018-02-11T04:38:24.376Z,98185.10
2018-02-11T04:40:51.783Z,98187.63
2018-02-11T04:43:19.180Z,98182.20
2018-02-11T04:45:46.611Z,98171.95
2018-02-11T04:48:14.109Z,98161.20
2018-02-11T04:50:41.508Z,98158.07
2018-02-11T04:53:08.917Z,98158.80
2018-02-11T04:55:36.347Z,98148.86
2018-02-11T04:58:03.765Z,98143.95
2018-02-11T05:00:31.174Z,98145.43
2018-02-11T05:02:58.591Z,98134.94
2018-02-11T05:05:25.976Z,98121.59
2018-02-11T05:07:53.381Z,98131.47
2018-02-11T05:10:20.798Z,98112.66
2018-02-11T05:12:48.212Z,98110.63
2018-02-11T05:15:15.635Z,98109.23
2018-02-11T05:17:43.113Z,98099.66
2018-02-11T05:20:10.549Z,98103.72
2018-02-11T05:22:38.033Z,98097.29
2018-02-11T05:25:05.493Z,98099.23
2018-02-11T05:27:32.889Z,98088.63
2018-02-11T05:30:00.302Z,98088.50
2018-02-11T05:32:27.777Z,98079.22
2018-02-11T05:34:55.221Z,98077.88
2018-02-11T05:37:22.685Z,98068.41
2018-02-11T05:39:50.125Z,98066.11
2018-02-11T05:42:18.414Z,98061.47
2018-02-11T05:44:45.850Z,98058.13
2018-02-11T05:47:13.297Z,98049.34
2018-02-11T05:49:40.763Z,98049.17
2018-02-11T05:52:08.177Z,98053.16
2018-02-11T05:54:35.593Z,98052.18
2018-02-11T05:57:02.995Z,98046.11
2018-02-11T05:59:30.406Z,98056.04
2018-02-11T06:01:57.826Z,98042.97
2018-02-11T06:04:25.235Z,98046.77
2018-02-11T06:06:52.634Z,98054.01
2018-02-11T06:09:20.032Z,98052.64
2018-02-11T06:11:47.546Z,98047.91
2018-02-11T06:14:14.945Z,98057.22
2018-02-11T06:16:42.439Z,98050.19
2018-02-11T06:19:09.840Z,98048.80
2018-02-11T06:21:37.285Z,98047.31
2018-02-11T06:24:04.707Z,98045.11
2018-02-11T06:26:32.151Z,98040.59
2018-02-11T06:28:59.579Z,98035.09
2018-02-11T06:31:26.997Z,98030.72
2018-02-11T06:33:54.429Z,98025.87
2018-02-11T06:36:21.838Z,98022.39
2018-02-11T06:38:49.254Z,98019.84
2018-02-11T06:41:16.699Z,98023.08
2018-02-11T06:43:44.153Z,98017.84
2018-02-11T06:46:11.577Z,98018.59
2018-02-11T06:48:38.997Z,98011.77
2018-02-11T06:51:06.437Z,98010.19
2018-02-11T06:53:33.847Z,98009.06
2018-02-11T06:56:01.270Z,98015.53
2018-02-11T06:58:28.681Z,98008.72
2018-02-11T07:00:56.176Z,98010.98
2018-02-11T07:03:23.589Z,98006.56
2018-02-11T07:05:51.006Z,97997.77
2018-02-11T07:08:18.406Z,97989.23
2018-02-11T07:10:45.827Z,97979.52
2018-02-11T07:13:13.242Z,97977.06
2018-02-11T07:15:40.724Z,97968.52
2018-02-11T07:18:08.126Z,97959.20
2018-02-11T07:20:35.560Z,97961.08
2018-02-11T07:23:02.956Z,97954.81
2018-02-11T07:25:30.374Z,97947.76
2018-02-11T07:27:57.775Z,97942.77
2018-02-11T07:30:25.180Z,97937.36
2018-02-11T07:32:53.085Z,97930.44
2018-02-11T07:35:20.506Z,97929.73
2018-02-11T07:37:47.969Z,97922.53
2018-02-11T07:40:15.430Z,97921.28
2018-02-11T07:42:43.080Z,97925.45
2018-02-11T07:45:10.562Z,97914.05
2018-02-11T07:47:37.989Z,97929.03
2018-02-11T07:50:05.425Z,97922.72
2018-02-11T07:52:32.836Z,97914.41
2018-02-11T07:55:00.301Z,97915.19
2018-02-11T07:57:27.725Z,97915.59
2018-02-11T07:59:55.156Z,97917.72
2018-02-11T08:02:22.625Z,97913.09
2018-02-11T08:04:50.078Z,97909.55
2018-02-11T08:07:17.502Z,97901.12
2018-02-11T08:09:44.917Z,97896.40
2018-02-11T08:12:12.453Z,97902.38
2018-02-11T08:14:39.904Z,97903.96
2018-02-11T08:17:07.317Z,97907.55
2018-02-11T08:19:34.742Z,97890.31
2018-02-11T08:22:02.154Z,97881.02
2018-02-11T08:24:29.600Z,97880.22
2018-02-11T08:26:57.014Z,97884.95
2018-02-11T08:29:24.428Z,97877.69
2018-02-11T08:31:51.866Z,97882.87
2018-02-11T08:34:19.373Z,97883.75
2018-02-11T08:36:46.783Z,97878.61
2018-02-11T08:39:14.181Z,97880.38
2018-02-11T08:41:41.598Z,97872.06
2018-02-11T08:44:09.032Z,97880.09
2018-02-11T08:46:36.460Z,97875.69
2018-02-11T08:49:03.864Z,97879.66
2018-02-11T08:51:31.266Z,97874.35
2018-02-11T08:53:58.677Z,97879.16
2018-02-11T08:56:26.165Z,97880.16
2018-02-11T08:58:53.566Z,97881.69
2018-02-11T09:01:21.002Z,97874.58
2018-02-11T09:03:48.437Z,97870.66
2018-02-11T09:06:15.849Z,97874.63
2018-02-11T09:08:43.277Z,97875.17
2018-02-11T09:11:10.685Z,97873.66
2018-02-11T09:13:38.129Z,97870.35
2018-02-11T09:16:05.535Z,97864.52
2018-02-11T09:18:32.941Z,97866.16
2018-02-11T09:21:00.350Z,97867.70
2018-02-11T09:23:27.773Z,97872.91
2018-02-11T09:25:55.581Z,97865.94
2018-02-11T09:28:22.997Z,97857.36
2018-02-11T09:30:50.409Z,97864.55
2018-02-11T09:33:17.814Z,97865.92
2018-02-11T09:35:45.251Z,97862.26
2018-02-11T09:38:12.664Z,97856.32
2018-02-11T09:40:40.211Z,97853.78
2018-02-11T09:43:07.606Z,97847.27
2018-02-11T09:45:35.021Z,97844.81
2018-02-11T09:48:02.505Z,97840.76
2018-02-11T09:50:29.913Z,97843.84
2018-02-11T09:52:57.336Z,97844.06
2018-02-11T09:55:24.758Z,97839.75
2018-02-11T09:57:52.218Z,97831.11
2018-02-11T10:00:19.655Z,97824.45
2018-02-11T10:02:47.085Z,97823.41
2018-02-11T10:05:14.492Z,97818.91
2018-02-11T10:07:41.922Z,97820.25
2018-02-11T10:10:09.342Z,97817.17
2018-02-11T10:12:36.747Z,97815.67
2018-02-11T10:15:04.174Z,97810.92
2018-02-11T10:17:31.584Z,97812.36
2018-02-11T10:19:59.005Z,97807.55
2018-02-11T10:22:26.787Z,97808.89
2018-02-11T10:24:54.194Z,97804.73
2018-02-11T10:27:21.605Z,97803.94
2018-02-11T10:29:49.059Z,97806.53
2018-02-11T10:32:16.509Z,97800.59
2018-02-11T10:34:43.921Z,97799.47
2018-02-11T10:37:11.410Z,97804.44
2018-02-11T10:39:38.816Z,97800.90
2018-02-11T10:42:06.233Z,97799.48
2018-02-11T10:44:33.654Z,97798.89
2018-02-11T10:47:01.053Z,97800.11
2018-02-11T10:49:28.473Z,97796.19
2018-02-11T10:51:55.888Z,97796.33
2018-02-11T10:54:23.410Z,97797.94
2018-02-11T10:56:50.785Z,97798.34
2018-02-11T10:59:18.198Z,97799.48
2018-02-11T11:01:45.671Z,97791.39
2018-02-11T11:04:13.102Z,97801.95
2018-02-11T11:06:40.565Z,97791.89
2018-02-11T11:09:07.981Z,97786.88
2018-02-11T11:11:35.393Z,97791.24
2018-02-11T11:14:02.833Z,97787.61
2018-02-11T11:16:30.242Z,97789.38
2018-02-11T11:18:58.140Z,97788.92
2018-02-11T11:21:26.077Z,97791.98
2018-02-11T11:23:53.516Z,97792.83
2018-02-11T11:26:20.928Z,97792.66
2018-02-11T11:28:48.324Z,97790.50
2018-02-11T11:31:15.736Z,97789.62
2018-02-11T11:33:43.150Z,97787.02
2018-02-11T11:36:11.425Z,97779.16
2018-02-11T11:38:38.825Z,97783.63
2018-02-11T11:41:06.237Z,97782.53
2018-02-11T11:43:33.649Z,97769.77
2018-02-11T11:46:01.049Z,97764.55
2018-02-11T11:48:28.959Z,97762.98
2018-02-11T11:50:56.359Z,97763.54
2018-02-11T11:53:23.765Z,97768.91
2018-02-11T11:55:51.178Z,97761.47
2018-02-11T11:58:18.598Z,97765.32
2018-02-11T12:00:46.014Z,97767.73
2018-02-11T12:03:13.406Z,97763.38
2018-02-11T12:05:40.876Z,97769.30
2018-02-11T12:08:08.272Z,97763.50
2018-02-11T12:10:35.678Z,97762.98
2018-02-11T12:13:03.148Z,97756.97
2018-02-11T12:15:30.642Z,97763.52
2018-02-11T12:17:58.055Z,97760.45
2018-02-11T12:20:25.465Z,97757.61
2018-02-11T12:22:52.888Z,97762.80
2018-02-11T12:25:20.344Z,97752.47
2018-02-11T12:27:47.762Z,97750.59
2018-02-11T12:30:15.200Z,97761.44
2018-02-11T12:32:42.585Z,97757.99
2018-02-11T12:35:09.987Z,97758.44
2018-02-11T12:37:37.436Z,97756.11
2018-02-11T12:40:04.855Z,97747.44
2018-02-11T12:42:32.273Z,97746.38
2018-02-11T12:45:00.608Z,97743.60
2018-02-11T12:47:28.031Z,97735.16
2018-02-11T12:49:55.522Z,97732.63
2018-02-11T12:52:22.970Z,97729.48
2018-02-11T12:54:50.462Z,97731.23
2018-02-11T12:57:17.873Z,97731.77
2018-02-11T12:59:45.318Z,97725.25
2018-02-11T13:02:12.739Z,97727.66
2018-02-11T13:04:40.170Z,97730.42
2018-02-11T13:07:07.586Z,97726.71
2018-02-11T13:09:34.989Z,97724.77
2018-02-11T13:12:02.491Z,97720.11
2018-02-11T13:14:29.904Z,97721.52
2018-02-11T13:16:57.326Z,97725.55
2018-02-11T13:19:24.742Z,97723.09
2018-02-11T13:21:52.136Z,97728.91
2018-02-11T13:24:19.555Z,97725.36
2018-02-11T13:26:47.018Z,97709.88
2018-02-11T13:29:14.462Z,97722.29
2018-02-11T13:31:41.862Z,97725.97
2018-02-11T13:34:09.287Z,97724.66
2018-02-11T13:36:36.757Z,97725.81
2018-02-11T13:39:04.166Z,97714.68
2018-02-11T13:41:32.285Z,97723.69
2018-02-11T13:43:59.724Z,97722.69
2018-02-11T13:46:27.129Z,97729.50
2018-02-11T13:48:54.543Z,97721.72
2018-02-11T13:51:21.951Z,97729.70
2018-02-11T13:53:49.389Z,97728.64
2018-02-11T13:56:16.793Z,97729.14
2018-02-11T13:58:44.210Z,97724.60
2018-02-11T14:01:11.618Z,97722.30
2018-02-11T14:03:39.053Z,97709.75
2018-02-11T14:06:06.469Z,97693.63
2018-02-11T14:08:33.873Z,97683.23
2018-02-11T14:11:01.280Z,97687.07
2018-02-11T14:13:28.686Z,97696.07
2018-02-11T14:15:56.086Z,97692.75
2018-02-11T14:18:23.510Z,97703.67
2018-02-11T14:20:50.949Z,97697.64
2018-02-11T14:23:18.357Z,97704.00
2018-02-11T14:25:46.600Z,97705.61
2018-02-11T14:28:14.046Z,97710.83
2018-02-11T14:30:41.446Z,97715.08
2018-02-11T14:33:08.891Z,97719.36
2018-02-11T14:35:36.298Z,97714.89
2018-02-11T14:38:04.269Z,97721.69
2018-02-11T14:40:31.685Z,97723.93
2018-02-11T14:42:59.165Z,97719.05
2018-02-11T14:45:26.602Z,97706.91
2018-02-11T14:47:54.008Z,97707.80
2018-02-11T14:50:21.414Z,97702.24
2018-02-11T14:52:48.815Z,97710.11
2018-02-11T14:55:16.228Z,97703.78
2018-02-11T14:57:43.698Z,97713.23
2018-02-11T15:00:11.115Z,97717.16
2018-02-11T15:02:38.508Z,97710.72
2018-02-11T15:05:05.942Z,97707.84
2018-02-11T15:07:33.337Z,97719.56
2018-02-11T15:10:00.749Z,97724.74
2018-02-11T15:12:28.152Z,97725.83
2018-02-11T15:14:55.600Z,97731.84
2018-02-11T15:17:22.996Z,97733.73
2018-02-11T15:19:50.465Z,97735.06
2018-02-11T15:22:17.859Z,97728.14
2018-02-11T15:24:45.276Z,97719.81
2018-02-11T15:27:12.696Z,97719.98
2018-02-11T15:29:40.110Z,97721.53
2018-02-11T15:32:07.522Z,97728.55
2018-02-11T15:34:34.928Z,97724.16
2018-02-11T15:37:02.352Z,97729.75
2018-02-11T15:39:29.752Z,97726.67
2018-02-11T15:41:57.156Z,97738.94
2018-02-11T15:44:24.574Z,97744.34
2018-02-11T15:46:52.009Z,97741.07
2018-02-11T15:49:19.465Z,97744.37
2018-02-11T15:51:46.873Z,97744.41
2018-02-11T15:54:14.283Z,97749.48
2018-02-11T15:56:41.771Z,97749.59
2018-02-11T15:59:09.182Z,97746.56
2018-02-11T16:01:37.338Z,97750.48
2018-02-11T16:04:04.834Z,97754.27
2018-02-11T16:06:32.321Z,97753.26
2018-02-11T16:08:59.724Z,97762.69
2018-02-11T16:11:27.130Z,97762.06
2018-02-11T16:13:54.549Z,97762.66
2018-02-11T16:16:21.990Z,97767.92
2018-02-11T16:18:49.496Z,97762.53
2018-02-11T16:21:16.930Z,97757.20
2018-02-11T16:23:44.364Z,97776.55
2018-02-11T16:26:11.762Z,97759.77
2018-02-11T16:28:39.190Z,97765.73
2018-02-11T16:31:06.665Z,97769.34
2018-02-11T16:33:34.117Z,97779.30
2018-02-11T16:36:01.585Z,97779.17
2018-02-11T16:38:28.994Z,97788.42
2018-02-11T16:40:56.391Z,97782.95
2018-02-11T16:43:23.814Z,97788.42
2018-02-11T16:45:51.297Z,97796.52
2018-02-11T16:48:18.718Z,97801.11
2018-02-11T16:50:46.126Z,97796.57
2018-02-11T16:53:13.532Z,97806.34
2018-02-11T16:55:40.959Z,97802.08
2018-02-11T16:58:08.405Z,97793.66
2018-02-11T17:00:35.823Z,97799.33
2018-02-11T17:03:03.233Z,97803.06
2018-02-11T17:05:30.650Z,97804.48
2018-02-11T17:07:58.049Z,97807.31
2018-02-11T17:10:25.445Z,97807.63
2018-02-11T17:12:52.860Z,97815.53
2018-02-11T17:15:20.253Z,97812.17
2018-02-11T17:17:47.662Z,97814.50
2018-02-11T17:20:15.094Z,97810.47
2018-02-11T17:22:42.505Z,97824.52
2018-02-11T17:25:10.806Z,97823.17
2018-02-11T17:27:38.251Z,97828.33
2018-02-11T17:30:05.657Z,97826.14
2018-02-11T17:32:33.074Z,97832.70
2018-02-11T17:35:00.558Z,97839.35
2018-02-11T17:37:27.981Z,97842.33
2018-02-11T17:39:55.424Z,97838.53
2018-02-11T17:42:22.902Z,97848.12
2018-02-11T17:44:50.305Z,97847.42
2018-02-11T17:47:17.736Z,97844.77
2018-02-11T17:49:47.155Z,97847.16
2018-02-11T17:52:14.539Z,97842.78
2018-02-11T17:54:42.141Z,97850.53
2018-02-11T17:57:09.549Z,97852.69
2018-02-11T17:59:36.970Z,97851.87
2018-02-11T18:02:04.371Z,97855.33
2018-02-11T18:04:31.782Z,97857.74
2018-02-11T18:06:59.185Z,97854.05
2018-02-11T18:09:26.642Z,97857.96
2018-02-11T18:11:54.050Z,97857.28
2018-02-11T18:14:21.463Z,97868.27
2018-02-11T18:16:48.875Z,97870.21
2018-02-11T18:19:16.302Z,97862.53
2018-02-11T18:21:43.718Z,97875.05
2018-02-11T18:24:11.138Z,97881.86
2018-02-11T18:26:38.527Z,97878.80
2018-02-11T18:29:05.947Z,97882.66
2018-02-11T18:31:33.433Z,97886.40
2018-02-11T18:34:00.966Z,97880.89
2018-02-11T18:36:28.377Z,97890.63
2018-02-11T18:38:55.793Z,97886.28
2018-02-11T18:41:23.230Z,97887.78
2018-02-11T18:43:50.636Z,97890.47
2018-02-11T18:46:18.048Z,97885.89
2018-02-11T18:48:45.456Z,97888.16
2018-02-11T18:51:12.868Z,97888.42
2018-02-11T18:53:40.280Z,97899.31
2018-02-11T18:56:07.679Z,97897.80
2018-02-11T18:58:35.094Z,97900.78
2018-02-11T19:01:02.526Z,97906.02
2018-02-11T19:03:29.954Z,97904.94
2018-02-11T19:05:57.373Z,97909.61
2018-02-11T19:08:24.789Z,97911.22
2018-02-11T19:10:52.216Z,97920.22
2018-02-11T19:13:19.644Z,97922.59
2018-02-11T19:15:47.089Z,97923.02
2018-02-11T19:18:14.494Z,97924.70
2018-02-11T19:20:41.968Z,97923.20
2018-02-11T19:23:09.378Z,97930.21
2018-02-11T19:25:36.795Z,97928.06
2018-02-11T19:28:04.251Z,97922.59
2018-02-11T19:30:31.699Z,97934.73
2018-02-11T19:32:59.140Z,97941.05
2018-02-11T19:35:26.509Z,97942.16
2018-02-11T19:37:53.917Z,97942.73
2018-02-11T19:40:21.328Z,97944.80
2018-02-11T19:42:48.740Z,97946.68
2018-02-11T19:45:17.210Z,97949.93
2018-02-11T19:47:44.679Z,97953.88
2018-02-11T19:50:12.110Z,97953.61
2018-02-11T19:52:39.501Z,97953.00
2018-02-11T19:55:06.921Z,97961.64
2018-02-11T19:57:34.327Z,97967.05
2018-02-11T20:00:02.524Z,97957.94
2018-02-11T20:02:29.972Z,97958.05
2018-02-11T20:04:57.374Z,97951.77
2018-02-11T20:07:24.781Z,97958.77
2018-02-11T20:09:52.197Z,97953.80
2018-02-11T20:12:19.620Z,97960.13
2018-02-11T20:14:47.075Z,97959.96
2018-02-11T20:17:14.480Z,97961.80
2018-02-11T20:19:41.952Z,97959.16
2018-02-11T20:22:09.362Z,97952.80
2018-02-11T20:24:36.770Z,97954.26
2018-02-11T20:27:04.229Z,97954.19
2018-02-11T20:29:31.641Z,97949.24
2018-02-11T20:31:59.052Z,97949.81
2018-02-11T20:34:26.466Z,97965.55
2018-02-11T20:36:53.876Z,97965.91
2018-02-11T20:39:21.290Z,97970.03
2018-02-11T20:41:48.719Z,97970.64
2018-02-11T20:44:16.121Z,97962.03
2018-02-11T20:46:43.556Z,97977.05
2018-02-11T20:49:10.953Z,97971.84
2018-02-11T20:51:38.377Z,97974.82
2018-02-11T20:54:05.810Z,97980.97
2018-02-11T20:56:33.225Z,97989.87
2018-02-11T20:59:00.644Z,98002.27
2018-02-11T21:01:28.084Z,98001.31
2018-02-11T21:03:55.525Z,98008.77
2018-02-11T21:06:22.977Z,98014.05
2018-02-11T21:08:51.394Z,98007.48
2018-02-11T21:11:18.829Z,98008.15
2018-02-11T21:13:46.249Z,98014.23
2018-02-11T21:16:13.656Z,98018.66
2018-02-11T21:18:41.067Z,98019.03
2018-02-11T21:21:08.466Z,98023.44
2018-02-11T21:23:35.884Z,98025.98
2018-02-11T21:26:03.280Z,98017.09
2018-02-11T21:28:30.761Z,98022.86
2018-02-11T21:30:58.260Z,98016.94
2018-02-11T21:33:25.694Z,98018.95
2018-02-11T21:35:53.112Z,98018.20
2018-02-11T21:38:20.613Z,98023.79
2018-02-11T21:40:48.013Z,98025.07
2018-02-11T21:43:15.443Z,98029.08
2018-02-11T21:45:42.909Z,98028.98
2018-02-11T21:48:10.356Z,98033.98
2018-02-11T21:50:37.765Z,98030.27
2018-02-11T21:53:05.181Z,98032.08
2018-02-11T21:55:32.593Z,98042.53
2018-02-11T21:58:00.005Z,98042.64
2018-02-11T22:02:40.586Z,98037.07
2018-02-11T22:05:08.018Z,98037.59
2018-02-11T22:07:35.452Z,98036.47
2018-02-11T22:10:02.870Z,98043.89
2018-02-11T22:12:30.265Z,98042.34
2018-02-11T22:14:57.746Z,98043.47
2018-02-11T22:17:25.167Z,98035.56
2018-02-11T22:19:53.573Z,98041.57
2018-02-11T22:22:20.989Z,98035.59
2018-02-11T22:24:48.420Z,98044.88
2018-02-11T22:27:15.828Z,98041.43
2018-02-11T22:29:43.266Z,98045.86
2018-02-11T22:32:10.668Z,98035.42
2018-02-11T22:34:38.097Z,98039.33
2018-02-11T22:37:05.610Z,98039.11
2018-02-11T22:39:33.035Z,98042.52
2018-02-11T22:42:00.430Z,98043.64
2018-02-11T22:44:27.845Z,98041.47
2018-02-11T22:46:55.336Z,98047.51
2018-02-11T22:49:22.757Z,98062.41
2018-02-11T22:51:50.161Z,98066.55
2018-02-11T22:54:17.569Z,98077.33
2018-02-11T22:56:44.985Z,98083.41
2018-02-11T22:59:12.407Z,98083.94
2018-02-11T23:01:39.801Z,98089.13
2018-02-11T23:04:07.223Z,98085.23
2018-02-11T23:06:34.637Z,98088.16
2018-02-11T23:09:02.038Z,98089.13
2018-02-11T23:11:29.444Z,98092.32
2018-02-11T23:13:56.832Z,98095.37
2018-02-11T23:16:24.856Z,98107.31
2018-02-11T23:18:52.266Z,98104.92
2018-02-11T23:21:20.282Z,98119.08
2018-02-11T23:23:47.698Z,98116.88
2018-02-11T23:26:15.108Z,98126.69
2018-02-11T23:28:42.529Z,98129.73
2018-02-11T23:31:09.946Z,98135.91
2018-02-11T23:33:37.406Z,98130.73
2018-02-11T23:36:04.829Z,98113.02
2018-02-11T23:38:32.228Z,98110.91
2018-02-11T23:40:59.632Z,98096.70
2018-02-11T23:43:27.044Z,98092.70
2018-02-11T23:45:54.485Z,98101.38
2018-02-11T23:48:21.916Z,98110.03
2018-02-11T23:50:49.329Z,98107.19
2018-02-11T23:53:16.724Z,98095.28
2018-02-11T23:55:44.209Z,98108.03
2018-02-11T23:58:11.654Z,98113.78
